sensor_id;sensor_type;location;lat;lon;timestamp;pressure;altitude;pressure_sealevel;temperature;humidity
80308;BME280;69616;43.522;1.348;2023-10-13T00:00:45;100127.66;;;20.18;63.33
80308;BME280;69616;43.522;1.348;2023-10-13T00:03:13;100129.47;;;20.18;63.59
80308;BME280;69616;43.522;1.348;2023-10-13T00:05:42;100133.09;;;20.17;63.37
80308;BME280;69616;43.522;1.348;2023-10-13T00:08:09;100131.47;;;20.13;63.58
80308;BME280;69616;43.522;1.348;2023-10-13T00:10:35;100129.75;;;20.12;63.61
80308;BME280;69616;43.522;1.348;2023-10-13T00:13:02;100138.59;;;20.14;63.65
80308;BME280;69616;43.522;1.348;2023-10-13T00:15:45;100128.88;;;20.11;63.55
80308;BME280;69616;43.522;1.348;2023-10-13T00:18:28;100133.50;;;20.07;63.46
80308;BME280;69616;43.522;1.348;2023-10-13T00:21:02;100128.28;;;20.04;63.25
80308;BME280;69616;43.522;1.348;2023-10-13T00:23:57;100128.59;;;19.98;63.78
80308;BME280;69616;43.522;1.348;2023-10-13T00:26:26;100134.91;;;19.96;63.58
80308;BME280;69616;43.522;1.348;2023-10-13T00:28:59;100135.00;;;19.94;63.38
80308;BME280;69616;43.522;1.348;2023-10-13T00:31:51;100138.78;;;19.88;63.90
80308;BME280;69616;43.522;1.348;2023-10-13T00:34:17;100132.56;;;19.88;63.56
80308;BME280;69616;43.522;1.348;2023-10-13T00:36:57;100140.72;;;19.85;63.68
80308;BME280;69616;43.522;1.348;2023-10-13T00:39:35;100133.88;;;19.79;63.40
80308;BME280;69616;43.522;1.348;2023-10-13T00:42:04;100131.38;;;19.74;63.76
80308;BME280;69616;43.522;1.348;2023-10-13T00:44:35;100136.00;;;19.71;63.53
80308;BME280;69616;43.522;1.348;2023-10-13T00:47:09;100133.53;;;19.66;63.62
80308;BME280;69616;43.522;1.348;2023-10-13T00:49:36;100128.53;;;19.58;63.94
80308;BME280;69616;43.522;1.348;2023-10-13T00:52:08;100132.47;;;19.49;64.12
80308;BME280;69616;43.522;1.348;2023-10-13T00:54:36;100127.41;;;19.43;64.58
80308;BME280;69616;43.522;1.348;2023-10-13T00:57:03;100129.34;;;19.40;64.57
80308;BME280;69616;43.522;1.348;2023-10-13T00:59:57;100131.34;;;19.34;64.61
80308;BME280;69616;43.522;1.348;2023-10-13T01:02:23;100135.13;;;19.29;64.74
80308;BME280;69616;43.522;1.348;2023-10-13T01:05:07;100131.00;;;19.21;64.99
80308;BME280;69616;43.522;1.348;2023-10-13T01:07:39;100129.31;;;19.19;65.19
80308;BME280;69616;43.522;1.348;2023-10-13T01:10:09;100134.72;;;19.17;65.40
80308;BME280;69616;43.522;1.348;2023-10-13T01:12:38;100130.28;;;19.16;65.42
80308;BME280;69616;43.522;1.348;2023-10-13T01:15:04;100123.22;;;19.15;65.13
80308;BME280;69616;43.522;1.348;2023-10-13T01:17:32;100116.03;;;19.17;65.38
80308;BME280;69616;43.522;1.348;2023-10-13T01:19:59;100111.50;;;19.19;65.24
80308;BME280;69616;43.522;1.348;2023-10-13T01:22:25;100112.31;;;19.21;65.00
80308;BME280;69616;43.522;1.348;2023-10-13T01:24:52;100113.97;;;19.24;65.15
80308;BME280;69616;43.522;1.348;2023-10-13T01:27:29;100114.03;;;19.22;64.82
80308;BME280;69616;43.522;1.348;2023-10-13T01:29:54;100106.97;;;19.21;64.92
80308;BME280;69616;43.522;1.348;2023-10-13T01:32:31;100102.56;;;19.20;64.88
80308;BME280;69616;43.522;1.348;2023-10-13T01:34:56;100099.00;;;19.20;64.86
80308;BME280;69616;43.522;1.348;2023-10-13T01:37:30;100092.06;;;19.16;64.87
80308;BME280;69616;43.522;1.348;2023-10-13T01:39:56;100096.53;;;19.15;64.67
80308;BME280;69616;43.522;1.348;2023-10-13T01:42:21;100091.31;;;19.12;64.67
80308;BME280;69616;43.522;1.348;2023-10-13T01:44:50;100081.59;;;19.11;64.39
80308;BME280;69616;43.522;1.348;2023-10-13T01:47:16;100084.25;;;19.11;64.36
80308;BME280;69616;43.522;1.348;2023-10-13T01:49:42;100075.56;;;19.06;64.28
80308;BME280;69616;43.522;1.348;2023-10-13T01:52:13;100070.44;;;19.01;64.43
80308;BME280;69616;43.522;1.348;2023-10-13T01:54:45;100067.94;;;18.97;64.46
80308;BME280;69616;43.522;1.348;2023-10-13T01:57:13;100061.91;;;18.91;64.48
80308;BME280;69616;43.522;1.348;2023-10-13T01:59:43;100070.97;;;18.87;64.47
80308;BME280;69616;43.522;1.348;2023-10-13T02:02:10;100062.19;;;18.85;64.20
80308;BME280;69616;43.522;1.348;2023-10-13T02:04:38;100062.31;;;18.82;64.43
80308;BME280;69616;43.522;1.348;2023-10-13T02:07:08;100063.28;;;18.79;64.53
80308;BME280;69616;43.522;1.348;2023-10-13T02:09:33;100053.63;;;18.77;64.68
80308;BME280;69616;43.522;1.348;2023-10-13T02:12:02;100057.16;;;18.77;64.74
80308;BME280;69616;43.522;1.348;2023-10-13T02:14:28;100050.16;;;18.75;64.94
80308;BME280;69616;43.522;1.348;2023-10-13T02:16:53;100043.09;;;18.74;64.86
80308;BME280;69616;43.522;1.348;2023-10-13T02:19:37;100038.69;;;18.73;65.32
80308;BME280;69616;43.522;1.348;2023-10-13T02:22:05;100043.91;;;18.76;65.37
80308;BME280;69616;43.522;1.348;2023-10-13T02:24:34;100040.34;;;18.75;65.97
80308;BME280;69616;43.522;1.348;2023-10-13T02:26:59;100037.63;;;18.77;66.29
80308;BME280;69616;43.522;1.348;2023-10-13T02:29:35;100039.28;;;18.79;66.00
80308;BME280;69616;43.522;1.348;2023-10-13T02:32:04;100040.13;;;18.82;66.57
80308;BME280;69616;43.522;1.348;2023-10-13T02:34:37;100033.16;;;18.77;67.11
80308;BME280;69616;43.522;1.348;2023-10-13T02:37:09;100026.97;;;18.77;67.49
80308;BME280;69616;43.522;1.348;2023-10-13T02:39:35;100026.81;;;18.80;67.53
80308;BME280;69616;43.522;1.348;2023-10-13T02:42:01;100027.56;;;18.84;67.61
80308;BME280;69616;43.522;1.348;2023-10-13T02:44:32;100030.09;;;18.87;67.70
80308;BME280;69616;43.522;1.348;2023-10-13T02:47:01;100021.31;;;18.85;67.76
80308;BME280;69616;43.522;1.348;2023-10-13T02:49:31;100024.81;;;18.85;68.04
80308;BME280;69616;43.522;1.348;2023-10-13T02:51:59;100019.50;;;18.85;68.46
80308;BME280;69616;43.522;1.348;2023-10-13T02:54:30;100027.75;;;18.79;69.70
80308;BME280;69616;43.522;1.348;2023-10-13T02:56:56;100019.00;;;18.75;69.96
80308;BME280;69616;43.522;1.348;2023-10-13T02:59:31;100018.06;;;18.76;69.81
80308;BME280;69616;43.522;1.348;2023-10-13T03:02:07;100014.75;;;18.71;71.15
80308;BME280;69616;43.522;1.348;2023-10-13T03:04:47;100009.50;;;18.70;71.77
80308;BME280;69616;43.522;1.348;2023-10-13T03:07:13;100009.34;;;18.73;71.04
80308;BME280;69616;43.522;1.348;2023-10-13T03:09:47;99999.53;;;18.73;70.66
80308;BME280;69616;43.522;1.348;2023-10-13T03:12:20;99999.63;;;18.72;71.25
80308;BME280;69616;43.522;1.348;2023-10-13T03:14:53;100001.50;;;18.70;71.71
80308;BME280;69616;43.522;1.348;2023-10-13T03:17:37;99998.81;;;18.70;71.65
80308;BME280;69616;43.522;1.348;2023-10-13T03:20:06;99997.13;;;18.67;72.73
80308;BME280;69616;43.522;1.348;2023-10-13T03:22:32;99991.72;;;18.69;71.63
80308;BME280;69616;43.522;1.348;2023-10-13T03:24:58;99989.88;;;18.71;71.83
80308;BME280;69616;43.522;1.348;2023-10-13T03:27:32;99991.72;;;18.69;71.93
80308;BME280;69616;43.522;1.348;2023-10-13T03:30:16;99989.97;;;18.68;71.79
80308;BME280;69616;43.522;1.348;2023-10-13T03:32:44;99994.38;;;18.69;72.47
80308;BME280;69616;43.522;1.348;2023-10-13T03:35:19;99991.84;;;18.65;72.70
80308;BME280;69616;43.522;1.348;2023-10-13T03:37:54;99993.50;;;18.70;72.13
80308;BME280;69616;43.522;1.348;2023-10-13T03:40:20;99994.28;;;18.72;72.45
80308;BME280;69616;43.522;1.348;2023-10-13T03:45:24;99982.72;;;18.71;72.37
80308;BME280;69616;43.522;1.348;2023-10-13T03:47:51;99988.03;;;18.73;72.70
80308;BME280;69616;43.522;1.348;2023-10-13T03:50:17;99983.47;;;18.75;72.70
80308;BME280;69616;43.522;1.348;2023-10-13T03:52:54;99984.56;;;18.71;73.33
80308;BME280;69616;43.522;1.348;2023-10-13T03:55:23;99982.69;;;18.73;73.04
80308;BME280;69616;43.522;1.348;2023-10-13T03:57:52;99977.34;;;18.73;73.21
80308;BME280;69616;43.522;1.348;2023-10-13T04:00:17;99980.94;;;18.72;73.91
80308;BME280;69616;43.522;1.348;2023-10-13T04:02:53;99979.13;;;18.72;73.25
80308;BME280;69616;43.522;1.348;2023-10-13T04:05:42;99977.47;;;18.70;73.81
80308;BME280;69616;43.522;1.348;2023-10-13T04:08:26;99972.16;;;18.70;74.24
80308;BME280;69616;43.522;1.348;2023-10-13T04:10:55;99971.13;;;18.72;73.84
80308;BME280;69616;43.522;1.348;2023-10-13T04:13:21;99972.16;;;18.70;74.07
80308;BME280;69616;43.522;1.348;2023-10-13T04:16:07;99971.13;;;18.72;73.89
80308;BME280;69616;43.522;1.348;2023-10-13T04:18:49;99970.28;;;18.72;73.51
80308;BME280;69616;43.522;1.348;2023-10-13T04:21:23;99970.34;;;18.70;74.17
80308;BME280;69616;43.522;1.348;2023-10-13T04:24:13;99968.41;;;18.74;73.20
80308;BME280;69616;43.522;1.348;2023-10-13T04:26:51;99967.47;;;18.75;73.79
80308;BME280;69616;43.522;1.348;2023-10-13T04:29:36;99962.06;;;18.76;73.44
80308;BME280;69616;43.522;1.348;2023-10-13T04:32:15;99972.72;;;18.76;73.37
80308;BME280;69616;43.522;1.348;2023-10-13T04:35:02;99962.06;;;18.76;73.75
80308;BME280;69616;43.522;1.348;2023-10-13T04:37:38;99970.94;;;18.77;73.75
80308;BME280;69616;43.522;1.348;2023-10-13T04:40:22;99966.41;;;18.79;73.56
80308;BME280;69616;43.522;1.348;2023-10-13T04:42:50;99975.47;;;18.75;74.12
80308;BME280;69616;43.522;1.348;2023-10-13T04:45:20;99975.47;;;18.75;74.13
80308;BME280;69616;43.522;1.348;2023-10-13T04:47:59;99970.94;;;18.77;74.01
80308;BME280;69616;43.522;1.348;2023-10-13T04:50:59;99973.66;;;18.75;74.45
80308;BME280;69616;43.522;1.348;2023-10-13T04:53:44;99986.94;;;18.77;74.31
80308;BME280;69616;43.522;1.348;2023-10-13T04:56:39;99982.53;;;18.76;74.07
80308;BME280;69616;43.522;1.348;2023-10-13T04:59:07;99990.56;;;18.76;74.31
80308;BME280;69616;43.522;1.348;2023-10-13T05:02:01;99989.63;;;18.77;74.18
80308;BME280;69616;43.522;1.348;2023-10-13T05:04:45;99986.19;;;18.73;74.39
80308;BME280;69616;43.522;1.348;2023-10-13T05:07:29;99984.41;;;18.74;74.32
80308;BME280;69616;43.522;1.348;2023-10-13T05:10:13;99973.88;;;18.71;75.11
80308;BME280;69616;43.522;1.348;2023-10-13T05:12:57;99975.53;;;18.73;74.50
80308;BME280;69616;43.522;1.348;2023-10-13T05:15:49;99961.22;;;18.76;74.36
80308;BME280;69616;43.522;1.348;2023-10-13T05:18:33;99960.28;;;18.77;74.06
80308;BME280;69616;43.522;1.348;2023-10-13T05:21:18;99958.47;;;18.77;74.41
80308;BME280;69616;43.522;1.348;2023-10-13T05:24:03;99957.47;;;18.80;74.52
80308;BME280;69616;43.522;1.348;2023-10-13T05:26:47;99964.53;;;18.81;74.41
80308;BME280;69616;43.522;1.348;2023-10-13T05:29:31;99960.13;;;18.80;74.59
80308;BME280;69616;43.522;1.348;2023-10-13T05:32:15;99960.88;;;18.84;74.14
80308;BME280;69616;43.522;1.348;2023-10-13T05:34:59;99964.41;;;18.84;74.21
80308;BME280;69616;43.522;1.348;2023-10-13T05:37:45;99954.53;;;18.86;74.56
80308;BME280;69616;43.522;1.348;2023-10-13T05:40:30;99958.94;;;18.87;74.75
80308;BME280;69616;43.522;1.348;2023-10-13T05:43:14;99964.22;;;18.89;74.64
80308;BME280;69616;43.522;1.348;2023-10-13T05:46:02;99966.78;;;18.90;74.87
80308;BME280;69616;43.522;1.348;2023-10-13T05:48:47;99965.00;;;18.91;74.97
80308;BME280;69616;43.522;1.348;2023-10-13T05:51:28;99960.53;;;18.91;75.29
80308;BME280;69616;43.522;1.348;2023-10-13T05:54:10;99961.34;;;18.93;75.26
80308;BME280;69616;43.522;1.348;2023-10-13T05:56:45;99967.41;;;18.97;75.04
80308;BME280;69616;43.522;1.348;2023-10-13T05:59:30;99955.88;;;18.97;75.08
80308;BME280;69616;43.522;1.348;2023-10-13T06:02:20;99952.31;;;18.96;75.27
80308;BME280;69616;43.522;1.348;2023-10-13T06:05:06;99954.94;;;18.98;75.07
80308;BME280;69616;43.522;1.348;2023-10-13T06:07:50;99952.22;;;18.99;75.90
80308;BME280;69616;43.522;1.348;2023-10-13T06:10:35;99959.38;;;18.99;75.81
80308;BME280;69616;43.522;1.348;2023-10-13T06:13:18;99965.38;;;19.04;75.42
80308;BME280;69616;43.522;1.348;2023-10-13T06:16:17;99962.69;;;19.04;75.92
80308;BME280;69616;43.522;1.348;2023-10-13T06:19:02;99961.75;;;19.05;76.27
80308;BME280;69616;43.522;1.348;2023-10-13T06:21:46;99968.78;;;19.07;76.03
80308;BME280;69616;43.522;1.348;2023-10-13T06:24:31;99973.19;;;19.08;76.43
80308;BME280;69616;43.522;1.348;2023-10-13T06:27:16;99972.16;;;19.11;76.56
80308;BME280;69616;43.522;1.348;2023-10-13T06:30:00;99973.75;;;19.15;76.29
80308;BME280;69616;43.522;1.348;2023-10-13T06:32:30;99969.09;;;19.20;75.97
80308;BME280;69616;43.522;1.348;2023-10-13T06:34:56;99964.56;;;19.22;76.49
80308;BME280;69616;43.522;1.348;2023-10-13T06:37:45;99975.94;;;19.26;75.90
80308;BME280;69616;43.522;1.348;2023-10-13T06:40:12;99975.75;;;19.31;75.60
80308;BME280;69616;43.522;1.348;2023-10-13T06:42:58;99973.81;;;19.34;75.55
80308;BME280;69616;43.522;1.348;2023-10-13T06:45:37;99973.72;;;19.36;75.48
80308;BME280;69616;43.522;1.348;2023-10-13T06:48:03;99977.06;;;19.41;75.63
80308;BME280;69616;43.522;1.348;2023-10-13T06:50:28;99977.88;;;19.43;76.21
80308;BME280;69616;43.522;1.348;2023-10-13T06:52:54;99978.56;;;19.47;76.37
80308;BME280;69616;43.522;1.348;2023-10-13T06:55:20;99980.16;;;19.51;76.54
80308;BME280;69616;43.522;1.348;2023-10-13T06:57:55;99980.75;;;19.58;76.15
80308;BME280;69616;43.522;1.348;2023-10-13T07:00:25;99980.56;;;19.62;76.22
80308;BME280;69616;43.522;1.348;2023-10-13T07:02:54;99984.75;;;19.68;75.79
80308;BME280;69616;43.522;1.348;2023-10-13T07:05:30;99981.84;;;19.73;75.73
80308;BME280;69616;43.522;1.348;2023-10-13T07:07:57;99978.81;;;19.80;76.03
80308;BME280;69616;43.522;1.348;2023-10-13T07:10:24;99987.47;;;19.86;75.93
80308;BME280;69616;43.522;1.348;2023-10-13T07:12:55;99989.03;;;19.91;76.01
80308;BME280;69616;43.522;1.348;2023-10-13T07:15:25;99987.88;;;19.97;75.74
80308;BME280;69616;43.522;1.348;2023-10-13T07:17:53;99980.66;;;19.99;75.99
80308;BME280;69616;43.522;1.348;2023-10-13T07:20:25;99982.00;;;20.08;75.57
80308;BME280;69616;43.522;1.348;2023-10-13T07:22:59;99983.06;;;20.23;75.51
80308;BME280;69616;43.522;1.348;2023-10-13T07:25:37;99985.91;;;20.37;75.20
80308;BME280;69616;43.522;1.348;2023-10-13T07:28:04;99983.66;;;20.47;74.78
80308;BME280;69616;43.522;1.348;2023-10-13T07:30:30;99984.06;;;20.57;74.37
80308;BME280;69616;43.522;1.348;2023-10-13T07:33:04;99984.16;;;20.56;74.65
80308;BME280;69616;43.522;1.348;2023-10-13T07:35:31;99998.94;;;20.63;74.79
80308;BME280;69616;43.522;1.348;2023-10-13T07:38:01;99995.88;;;20.71;74.30
80308;BME280;69616;43.522;1.348;2023-10-13T07:40:27;100000.13;;;20.75;73.58
80308;BME280;69616;43.522;1.348;2023-10-13T07:42:53;100003.25;;;20.85;73.53
80308;BME280;69616;43.522;1.348;2023-10-13T07:45:28;99998.28;;;20.94;73.51
80308;BME280;69616;43.522;1.348;2023-10-13T07:48:04;99997.88;;;21.02;72.87
80308;BME280;69616;43.522;1.348;2023-10-13T07:50:38;100001.81;;;21.13;72.97
80308;BME280;69616;43.522;1.348;2023-10-13T07:53:04;100005.19;;;21.16;72.55
80308;BME280;69616;43.522;1.348;2023-10-13T07:55:48;100007.53;;;21.22;72.43
80308;BME280;69616;43.522;1.348;2023-10-13T07:58:21;100004.88;;;21.22;72.23
80308;BME280;69616;43.522;1.348;2023-10-13T08:00:50;99998.16;;;21.31;72.09
80308;BME280;69616;43.522;1.348;2023-10-13T08:03:20;100003.22;;;21.54;71.79
80308;BME280;69616;43.522;1.348;2023-10-13T08:06:00;99999.75;;;21.69;70.96
80308;BME280;69616;43.522;1.348;2023-10-13T08:08:44;100004.25;;;21.85;70.92
80308;BME280;69616;43.522;1.348;2023-10-13T08:11:14;100007.78;;;22.01;70.50
80308;BME280;69616;43.522;1.348;2023-10-13T08:14:00;100008.66;;;22.18;69.90
80308;BME280;69616;43.522;1.348;2023-10-13T08:16:40;100008.13;;;22.27;69.68
80308;BME280;69616;43.522;1.348;2023-10-13T08:19:35;100002.91;;;22.40;69.01
80308;BME280;69616;43.522;1.348;2023-10-13T08:22:15;99992.03;;;22.59;68.29
80308;BME280;69616;43.522;1.348;2023-10-13T08:24:47;99995.31;;;22.64;67.42
80308;BME280;69616;43.522;1.348;2023-10-13T08:27:14;99988.03;;;22.67;67.79
80308;BME280;69616;43.522;1.348;2023-10-13T08:29:44;99988.03;;;22.67;67.30
80308;BME280;69616;43.522;1.348;2023-10-13T08:32:26;99986.47;;;22.62;67.58
80308;BME280;69616;43.522;1.348;2023-10-13T08:34:58;99979.00;;;22.68;67.49
80308;BME280;69616;43.522;1.348;2023-10-13T08:37:24;99978.31;;;22.80;66.96
80308;BME280;69616;43.522;1.348;2023-10-13T08:39:57;99981.00;;;22.94;66.20
80308;BME280;69616;43.522;1.348;2023-10-13T08:42:29;99974.69;;;23.10;65.91
80308;BME280;69616;43.522;1.348;2023-10-13T08:45:07;99977.06;;;23.31;65.68
80308;BME280;69616;43.522;1.348;2023-10-13T08:47:55;99969.19;;;23.42;64.10
80308;BME280;69616;43.522;1.348;2023-10-13T08:50:45;99976.66;;;23.37;64.30
80308;BME280;69616;43.522;1.348;2023-10-13T08:53:23;99981.28;;;23.35;64.23
80308;BME280;69616;43.522;1.348;2023-10-13T08:56:01;99968.50;;;23.39;64.21
80308;BME280;69616;43.522;1.348;2023-10-13T08:58:27;99976.97;;;23.47;64.08
80308;BME280;69616;43.522;1.348;2023-10-13T09:01:13;99968.22;;;23.58;63.47
80308;BME280;69616;43.522;1.348;2023-10-13T09:03:42;99971.47;;;23.63;63.58
80308;BME280;69616;43.522;1.348;2023-10-13T09:06:13;99968.69;;;23.64;62.81
80308;BME280;69616;43.522;1.348;2023-10-13T09:08:45;99969.81;;;23.75;62.88
80308;BME280;69616;43.522;1.348;2023-10-13T09:11:32;99970.38;;;23.80;62.72
80308;BME280;69616;43.522;1.348;2023-10-13T09:14:02;99972.19;;;23.94;62.38
80308;BME280;69616;43.522;1.348;2023-10-13T09:16:29;99969.78;;;24.04;62.48
80308;BME280;69616;43.522;1.348;2023-10-13T09:19:06;99981.28;;;24.20;62.25
80308;BME280;69616;43.522;1.348;2023-10-13T09:21:38;99961.72;;;24.31;60.86
80308;BME280;69616;43.522;1.348;2023-10-13T09:24:13;99968.41;;;24.39;61.29
80308;BME280;69616;43.522;1.348;2023-10-13T09:26:52;99957.22;;;24.45;60.35
80308;BME280;69616;43.522;1.348;2023-10-13T09:29:22;99971.44;;;24.47;59.99
80308;BME280;69616;43.522;1.348;2023-10-13T09:31:58;99973.28;;;24.46;60.08
80308;BME280;69616;43.522;1.348;2023-10-13T09:34:25;99961.31;;;24.37;59.98
80308;BME280;69616;43.522;1.348;2023-10-13T09:36:58;99957.66;;;24.39;60.02
80308;BME280;69616;43.522;1.348;2023-10-13T09:39:25;99964.16;;;24.49;60.18
80308;BME280;69616;43.522;1.348;2023-10-13T09:42:05;99968.69;;;24.61;59.49
80308;BME280;69616;43.522;1.348;2023-10-13T09:44:35;99963.09;;;24.64;58.92
80308;BME280;69616;43.522;1.348;2023-10-13T09:47:03;99965.75;;;24.79;59.15
80308;BME280;69616;43.522;1.348;2023-10-13T09:49:45;99967.94;;;25.00;58.13
80308;BME280;69616;43.522;1.348;2023-10-13T09:52:16;99966.84;;;25.15;57.42
80308;BME280;69616;43.522;1.348;2023-10-13T09:54:58;99964.91;;;25.30;57.14
80308;BME280;69616;43.522;1.348;2023-10-13T09:57:31;99950.66;;;25.41;57.10
80308;BME280;69616;43.522;1.348;2023-10-13T10:00:18;99954.56;;;25.50;56.49
80308;BME280;69616;43.522;1.348;2023-10-13T10:03:07;99953.25;;;25.56;56.14
80308;BME280;69616;43.522;1.348;2023-10-13T10:05:58;99959.50;;;25.43;55.86
80308;BME280;69616;43.522;1.348;2023-10-13T10:08:50;99939.88;;;25.54;55.52
80308;BME280;69616;43.522;1.348;2023-10-13T10:13:52;99943.13;;;25.59;55.47
80308;BME280;69616;43.522;1.348;2023-10-13T10:19:12;99930.91;;;25.67;54.65
80308;BME280;69616;43.522;1.348;2023-10-13T10:21:40;99943.31;;;25.69;54.13
80308;BME280;69616;43.522;1.348;2023-10-13T10:24:16;99934.25;;;25.70;54.47
80308;BME280;69616;43.522;1.348;2023-10-13T10:26:55;99948.03;;;25.78;54.02
80308;BME280;69616;43.522;1.348;2023-10-13T10:29:21;99952.41;;;25.92;54.25
80308;BME280;69616;43.522;1.348;2023-10-13T10:31:47;99949.91;;;26.02;53.68
80308;BME280;69616;43.522;1.348;2023-10-13T10:34:15;99945.13;;;26.19;53.31
80308;BME280;69616;43.522;1.348;2023-10-13T10:36:53;99939.06;;;26.15;53.25
80308;BME280;69616;43.522;1.348;2023-10-13T10:39:19;99939.72;;;26.19;52.94
80308;BME280;69616;43.522;1.348;2023-10-13T10:41:44;99939.59;;;26.20;52.93
80308;BME280;69616;43.522;1.348;2023-10-13T10:44:17;99933.63;;;26.28;52.62
80308;BME280;69616;43.522;1.348;2023-10-13T10:47:12;99927.00;;;26.32;52.78
80308;BME280;69616;43.522;1.348;2023-10-13T10:49:55;99938.03;;;26.54;52.37
80308;BME280;69616;43.522;1.348;2023-10-13T10:52:21;99937.66;;;26.58;52.45
80308;BME280;69616;43.522;1.348;2023-10-13T10:55:01;99944.03;;;26.57;52.07
80308;BME280;69616;43.522;1.348;2023-10-13T10:57:26;99942.50;;;26.77;51.80
80308;BME280;69616;43.522;1.348;2023-10-13T10:59:55;99933.84;;;26.97;50.32
80308;BME280;69616;43.522;1.348;2023-10-13T11:02:40;99931.63;;;27.02;50.79
80308;BME280;69616;43.522;1.348;2023-10-13T11:05:07;99938.28;;;27.09;49.90
80308;BME280;69616;43.522;1.348;2023-10-13T11:07:35;99936.09;;;27.14;50.21
80308;BME280;69616;43.522;1.348;2023-10-13T11:10:08;99929.22;;;27.21;49.60
80308;BME280;69616;43.522;1.348;2023-10-13T11:12:37;99927.00;;;27.38;48.58
80308;BME280;69616;43.522;1.348;2023-10-13T11:15:06;99931.91;;;27.44;49.11
80308;BME280;69616;43.522;1.348;2023-10-13T11:17:40;99925.25;;;27.60;47.75
80308;BME280;69616;43.522;1.348;2023-10-13T11:20:16;99923.06;;;27.65;48.28
80308;BME280;69616;43.522;1.348;2023-10-13T11:22:46;99924.53;;;27.69;47.41
80308;BME280;69616;43.522;1.348;2023-10-13T11:25:30;99913.19;;;27.75;46.78
80308;BME280;69616;43.522;1.348;2023-10-13T11:28:16;99912.53;;;27.94;47.00
80308;BME280;69616;43.522;1.348;2023-10-13T11:31:00;99902.78;;;28.03;46.77
80308;BME280;69616;43.522;1.348;2023-10-13T11:33:36;99909.41;;;28.22;46.89
80308;BME280;69616;43.522;1.348;2023-10-13T11:36:02;99906.63;;;28.33;46.41
80308;BME280;69616;43.522;1.348;2023-10-13T11:38:38;99902.09;;;28.55;45.84
80308;BME280;69616;43.522;1.348;2023-10-13T11:41:31;99891.91;;;28.69;44.93
80308;BME280;69616;43.522;1.348;2023-10-13T11:43:59;99888.38;;;28.89;44.39
80308;BME280;69616;43.522;1.348;2023-10-13T11:46:46;99884.66;;;29.21;43.62
80308;BME280;69616;43.522;1.348;2023-10-13T11:49:11;99885.22;;;29.15;43.54
80308;BME280;69616;43.522;1.348;2023-10-13T11:54:13;99886.03;;;29.06;44.20
80308;BME280;69616;43.522;1.348;2023-10-13T11:56:39;99873.91;;;29.10;43.86
80308;BME280;69616;43.522;1.348;2023-10-13T11:59:05;99874.72;;;29.01;43.56
80308;BME280;69616;43.522;1.348;2023-10-13T12:01:31;99872.16;;;28.99;43.86
80308;BME280;69616;43.522;1.348;2023-10-13T12:04:29;99871.38;;;28.87;43.92
80308;BME280;69616;43.522;1.348;2023-10-13T12:06:59;99865.81;;;28.68;44.35
80308;BME280;69616;43.522;1.348;2023-10-13T12:09:36;99855.09;;;28.66;44.05
80308;BME280;69616;43.522;1.348;2023-10-13T12:12:29;99863.28;;;28.76;43.92
80308;BME280;69616;43.522;1.348;2023-10-13T12:14:56;99859.94;;;28.84;43.81
80308;BME280;69616;43.522;1.348;2023-10-13T12:17:28;99859.66;;;28.87;44.02
80308;BME280;69616;43.522;1.348;2023-10-13T12:20:00;99854.19;;;28.98;43.87
80308;BME280;69616;43.522;1.348;2023-10-13T12:22:29;99862.44;;;28.97;43.06
80308;BME280;69616;43.522;1.348;2023-10-13T12:25:05;99857.28;;;28.93;42.57
80308;BME280;69616;43.522;1.348;2023-10-13T12:27:43;99844.59;;;28.94;42.98
80308;BME280;69616;43.522;1.348;2023-10-13T12:30:14;99835.50;;;29.05;43.37
80308;BME280;69616;43.522;1.348;2023-10-13T12:32:42;99833.00;;;29.23;42.33
80308;BME280;69616;43.522;1.348;2023-10-13T12:35:19;99841.28;;;29.21;42.26
80308;BME280;69616;43.522;1.348;2023-10-13T12:38:01;99837.25;;;29.16;42.18
80308;BME280;69616;43.522;1.348;2023-10-13T12:40:51;99826.84;;;29.11;42.68
80308;BME280;69616;43.522;1.348;2023-10-13T12:43:35;99821.38;;;29.01;42.45
80308;BME280;69616;43.522;1.348;2023-10-13T12:46:19;99819.50;;;29.02;42.20
80308;BME280;69616;43.522;1.348;2023-10-13T12:49:03;99818.25;;;29.06;42.12
80308;BME280;69616;43.522;1.348;2023-10-13T12:51:39;99822.69;;;29.07;42.16
80308;BME280;69616;43.522;1.348;2023-10-13T12:54:05;99814.00;;;29.13;42.67
80308;BME280;69616;43.522;1.348;2023-10-13T12:56:31;99810.16;;;29.26;42.54
80308;BME280;69616;43.522;1.348;2023-10-13T12:58:57;99815.31;;;29.29;42.58
80308;BME280;69616;43.522;1.348;2023-10-13T13:01:25;99811.75;;;29.28;42.82
80308;BME280;69616;43.522;1.348;2023-10-13T13:03:52;99807.44;;;29.26;41.86
80308;BME280;69616;43.522;1.348;2023-10-13T13:06:27;99811.72;;;29.18;41.89
80308;BME280;69616;43.522;1.348;2023-10-13T13:08:56;99802.19;;;29.24;42.02
80308;BME280;69616;43.522;1.348;2023-10-13T13:11:23;99802.94;;;29.36;41.66
80308;BME280;69616;43.522;1.348;2023-10-13T13:13:48;99795.69;;;29.46;40.52
80308;BME280;69616;43.522;1.348;2023-10-13T13:16:18;99800.78;;;29.40;40.38
80308;BME280;69616;43.522;1.348;2023-10-13T13:18:51;99791.16;;;29.57;40.77
80308;BME280;69616;43.522;1.348;2023-10-13T13:21:20;99784.13;;;29.64;39.67
80308;BME280;69616;43.522;1.348;2023-10-13T13:23:48;99792.41;;;29.72;39.66
80308;BME280;69616;43.522;1.348;2023-10-13T13:26:14;99783.44;;;29.82;39.68
80308;BME280;69616;43.522;1.348;2023-10-13T13:28:46;99789.88;;;29.81;38.95
80308;BME280;69616;43.522;1.348;2023-10-13T13:31:18;99781.16;;;29.77;39.18
80308;BME280;69616;43.522;1.348;2023-10-13T13:33:43;99780.72;;;29.72;39.16
80308;BME280;69616;43.522;1.348;2023-10-13T13:36:09;99784.84;;;29.66;38.66
80308;BME280;69616;43.522;1.348;2023-10-13T13:38:40;99781.00;;;29.59;38.64
80308;BME280;69616;43.522;1.348;2023-10-13T13:41:12;99784.13;;;29.54;38.34
80308;BME280;69616;43.522;1.348;2023-10-13T13:43:45;99775.28;;;29.62;38.73
80308;BME280;69616;43.522;1.348;2023-10-13T13:46:24;99784.72;;;29.58;38.07